الصفحة الرئيسية
صور الأقمار الصناعية توقعات الطقس لمدة 15 يوممناخالتوقعات البحرية إعصار برق مطارأسئلة وأجوبة النشرة الإخبارية حول
طقس : أوروبا أفريقيا أمريكا الشمالية أمريكا الجنوبية آسيا أستراليا-أوقيانوسيا آخرون
لغات جهة اتصال

مدينة همدان, إيران

دائرة عرض: 34-52-05N, خط طول: 048-33-08E, ارتفاع: 1757 m


METAR: OIHH 211351Z 00000KT 8000 -SHRA FEW030CB SCT035 09/05 Q1016
TAF: فقد

زمن: 18:36 (15:06 UTC)

مراقبة الطقس الحالي

تاريخ و وقت الإصدار 01 ساعة و 15 دقيقة قبل الساعة 13:51 UTC
ريح أي الرياح هادئة
درجة الحرارة 9°C
الرطوبة 76%
ضغط 1016 hPa
الرؤية: 8000 m
غيوم متفرقة على ارتفاع 3000 ft, مزنة ركامية.
غيوم متفرقة على ارتفاع 3500 ft
خفيف وابل من المطر

تغيير وحدة
المعلومات الواردة في هذا الموقع يخضع إخلاء
طقس : أوروبا أفريقيا أمريكا الشمالية أمريكا الجنوبية آسيا أستراليا-أوقيانوسيا آخرون
صور الأقمار الصناعية توقعات الطقس لمدة 15 يوممناخالتوقعات البحرية إعصار برق مطارأسئلة وأجوبة لغات جهة اتصال النشرة الإخبارية حول